KCXP

Carson Airport

Carson City, Nevada, USA
METAR KCXP 180655Z AUTO 21003KT 10SM OVC060 10/M04 A2995 RMK AO2
Observed Flight Rules
Feb-18 @ 06:55 UTC (20 minutes ago) Visual Flight Rules
Wind Visibility Clouds
210° at 3 knots 10 miles
  • Overcast at 6,000' AGL
Temperatures Readings
Current 10°C / 50°F
Dewpoint -4°C / 25°F
Humidity 37%
Altimeter 29.95" Hg
Pressure 1014 hPa
Elevation 1435
METAR KCXP 180655Z AUTO 21003KT 10SM OVC060 10/M04 A2995 RMK AO2
Observed Flight Rules
Feb-18 @ 06:55 UTC
(20 minutes ago)
VFR
Wind Visibility
210° at 3 knots 10 miles
Clouds
  • Overcast at 6,000' AGL
Temperature Dewpoint
10°C / 50°F -4°C / 25°F
Humidity Altimeter Pressure
37% 29.95" Hg 1014 hPa